sensor_id;sensor_type;location;lat;lon;timestamp;temperature;humidity
57434;DHT22;43277;52.672;6.984;2024-01-16T00:00:49;0.30;99.90
57434;DHT22;43277;52.672;6.984;2024-01-16T00:03:15;0.40;99.90
57434;DHT22;43277;52.672;6.984;2024-01-16T00:05:41;0.30;99.90
57434;DHT22;43277;52.672;6.984;2024-01-16T00:08:07;0.30;99.90
57434;DHT22;43277;52.672;6.984;2024-01-16T00:10:32;0.20;99.90
57434;DHT22;43277;52.672;6.984;2024-01-16T00:12:58;0.20;99.90
57434;DHT22;43277;52.672;6.984;2024-01-16T00:15:23;0.20;99.90
57434;DHT22;43277;52.672;6.984;2024-01-16T00:17:49;0.10;99.90
57434;DHT22;43277;52.672;6.984;2024-01-16T00:20:15;0.10;99.90
57434;DHT22;43277;52.672;6.984;2024-01-16T00:22:40;0.20;99.90
57434;DHT22;43277;52.672;6.984;2024-01-16T00:25:06;0.20;99.90
57434;DHT22;43277;52.672;6.984;2024-01-16T00:27:32;0.20;99.90
57434;DHT22;43277;52.672;6.984;2024-01-16T00:29:57;0.20;99.90
57434;DHT22;43277;52.672;6.984;2024-01-16T00:32:23;0.10;99.90
57434;DHT22;43277;52.672;6.984;2024-01-16T00:34:49;0.10;99.90
57434;DHT22;43277;52.672;6.984;2024-01-16T00:37:14;0.10;99.90
57434;DHT22;43277;52.672;6.984;2024-01-16T00:39:40;0.10;99.90
57434;DHT22;43277;52.672;6.984;2024-01-16T00:42:05;0.20;99.90
57434;DHT22;43277;52.672;6.984;2024-01-16T00:44:31;0.20;99.90
57434;DHT22;43277;52.672;6.984;2024-01-16T00:46:57;0.20;99.90
57434;DHT22;43277;52.672;6.984;2024-01-16T00:49:22;0.20;99.90
57434;DHT22;43277;52.672;6.984;2024-01-16T00:51:48;0.20;99.90
57434;DHT22;43277;52.672;6.984;2024-01-16T00:54:14;0.20;99.90
57434;DHT22;43277;52.672;6.984;2024-01-16T00:56:41;0.20;99.90
57434;DHT22;43277;52.672;6.984;2024-01-16T00:59:07;0.20;99.90
57434;DHT22;43277;52.672;6.984;2024-01-16T01:01:33;0.30;99.90
57434;DHT22;43277;52.672;6.984;2024-01-16T01:03:58;0.30;99.90
57434;DHT22;43277;52.672;6.984;2024-01-16T01:06:24;0.30;99.90
57434;DHT22;43277;52.672;6.984;2024-01-16T01:08:50;0.30;99.90
57434;DHT22;43277;52.672;6.984;2024-01-16T01:11:16;0.30;99.90
57434;DHT22;43277;52.672;6.984;2024-01-16T01:13:42;0.20;99.90
57434;DHT22;43277;52.672;6.984;2024-01-16T01:16:07;0.20;99.90
57434;DHT22;43277;52.672;6.984;2024-01-16T01:18:34;0.30;99.90
57434;DHT22;43277;52.672;6.984;2024-01-16T01:21:00;0.30;99.90
57434;DHT22;43277;52.672;6.984;2024-01-16T01:23:26;0.30;99.90
57434;DHT22;43277;52.672;6.984;2024-01-16T01:25:51;0.30;99.90
57434;DHT22;43277;52.672;6.984;2024-01-16T01:28:17;0.30;99.90
57434;DHT22;43277;52.672;6.984;2024-01-16T01:30:43;0.30;99.90
57434;DHT22;43277;52.672;6.984;2024-01-16T01:33:08;0.40;99.90
57434;DHT22;43277;52.672;6.984;2024-01-16T01:35:34;0.50;99.90
57434;DHT22;43277;52.672;6.984;2024-01-16T01:37:59;0.40;99.90
57434;DHT22;43277;52.672;6.984;2024-01-16T01:40:25;0.50;99.90
57434;DHT22;43277;52.672;6.984;2024-01-16T01:42:51;0.50;99.90
57434;DHT22;43277;52.672;6.984;2024-01-16T01:45:16;0.40;99.90
57434;DHT22;43277;52.672;6.984;2024-01-16T01:47:42;0.40;99.90
57434;DHT22;43277;52.672;6.984;2024-01-16T01:50:09;0.40;99.90
57434;DHT22;43277;52.672;6.984;2024-01-16T01:52:36;0.30;99.90
57434;DHT22;43277;52.672;6.984;2024-01-16T01:55:03;0.30;99.90
57434;DHT22;43277;52.672;6.984;2024-01-16T01:57:29;0.30;99.90
57434;DHT22;43277;52.672;6.984;2024-01-16T01:59:55;0.20;99.90
57434;DHT22;43277;52.672;6.984;2024-01-16T02:02:21;0.20;99.90
57434;DHT22;43277;52.672;6.984;2024-01-16T02:04:47;0.20;99.90
57434;DHT22;43277;52.672;6.984;2024-01-16T02:07:14;0.20;99.90
57434;DHT22;43277;52.672;6.984;2024-01-16T02:09:41;0.20;99.90
57434;DHT22;43277;52.672;6.984;2024-01-16T02:12:07;0.20;99.90
57434;DHT22;43277;52.672;6.984;2024-01-16T02:14:32;0.30;99.90
57434;DHT22;43277;52.672;6.984;2024-01-16T02:16:58;0.20;99.90
57434;DHT22;43277;52.672;6.984;2024-01-16T02:19:23;0.20;99.90
57434;DHT22;43277;52.672;6.984;2024-01-16T02:21:54;0.20;99.90
57434;DHT22;43277;52.672;6.984;2024-01-16T02:24:21;0.10;99.90
57434;DHT22;43277;52.672;6.984;2024-01-16T02:26:47;0.10;99.90
57434;DHT22;43277;52.672;6.984;2024-01-16T02:29:12;0.20;99.90
57434;DHT22;43277;52.672;6.984;2024-01-16T02:31:38;0.30;99.90
57434;DHT22;43277;52.672;6.984;2024-01-16T02:34:04;0.30;99.90
57434;DHT22;43277;52.672;6.984;2024-01-16T02:36:30;0.40;99.90
57434;DHT22;43277;52.672;6.984;2024-01-16T02:38:56;0.40;99.90
57434;DHT22;43277;52.672;6.984;2024-01-16T02:41:22;0.50;99.90
57434;DHT22;43277;52.672;6.984;2024-01-16T02:43:48;0.40;99.90
57434;DHT22;43277;52.672;6.984;2024-01-16T02:46:16;0.40;99.90
57434;DHT22;43277;52.672;6.984;2024-01-16T02:48:42;0.30;99.90
57434;DHT22;43277;52.672;6.984;2024-01-16T02:51:08;0.20;99.90
57434;DHT22;43277;52.672;6.984;2024-01-16T02:53:34;0.20;99.90
57434;DHT22;43277;52.672;6.984;2024-01-16T02:56:00;0.20;99.90
57434;DHT22;43277;52.672;6.984;2024-01-16T02:58:29;0.20;99.90
57434;DHT22;43277;52.672;6.984;2024-01-16T03:00:56;0.20;99.90
57434;DHT22;43277;52.672;6.984;2024-01-16T03:03:23;0.20;99.90
57434;DHT22;43277;52.672;6.984;2024-01-16T03:05:50;0.20;99.90
57434;DHT22;43277;52.672;6.984;2024-01-16T03:08:15;0.10;99.90
57434;DHT22;43277;52.672;6.984;2024-01-16T03:10:41;0.20;99.90
57434;DHT22;43277;52.672;6.984;2024-01-16T03:13:07;0.20;99.90
57434;DHT22;43277;52.672;6.984;2024-01-16T03:15:33;0.20;99.90
57434;DHT22;43277;52.672;6.984;2024-01-16T03:17:59;0.20;99.90
57434;DHT22;43277;52.672;6.984;2024-01-16T03:20:29;0.10;99.90
57434;DHT22;43277;52.672;6.984;2024-01-16T03:22:54;0.20;99.90
57434;DHT22;43277;52.672;6.984;2024-01-16T03:25:20;0.30;99.90
57434;DHT22;43277;52.672;6.984;2024-01-16T03:27:46;0.30;99.90
57434;DHT22;43277;52.672;6.984;2024-01-16T03:30:12;0.30;99.90
57434;DHT22;43277;52.672;6.984;2024-01-16T03:32:38;0.30;99.90
57434;DHT22;43277;52.672;6.984;2024-01-16T03:35:05;0.30;99.90
57434;DHT22;43277;52.672;6.984;2024-01-16T03:37:31;0.30;99.90
57434;DHT22;43277;52.672;6.984;2024-01-16T03:39:57;0.20;99.90
57434;DHT22;43277;52.672;6.984;2024-01-16T03:42:23;0.30;99.90
57434;DHT22;43277;52.672;6.984;2024-01-16T03:44:49;0.30;99.90
57434;DHT22;43277;52.672;6.984;2024-01-16T03:47:15;0.40;99.90
57434;DHT22;43277;52.672;6.984;2024-01-16T03:49:41;0.30;99.90
57434;DHT22;43277;52.672;6.984;2024-01-16T03:52:06;0.30;99.90
57434;DHT22;43277;52.672;6.984;2024-01-16T03:54:32;0.30;99.90
57434;DHT22;43277;52.672;6.984;2024-01-16T03:56:58;0.30;99.90
57434;DHT22;43277;52.672;6.984;2024-01-16T03:59:23;0.30;99.90
57434;DHT22;43277;52.672;6.984;2024-01-16T04:01:49;0.20;99.90
57434;DHT22;43277;52.672;6.984;2024-01-16T04:04:15;0.30;99.90
57434;DHT22;43277;52.672;6.984;2024-01-16T04:06:41;0.40;99.90
57434;DHT22;43277;52.672;6.984;2024-01-16T04:09:08;0.40;99.90
57434;DHT22;43277;52.672;6.984;2024-01-16T04:11:35;0.40;99.90
57434;DHT22;43277;52.672;6.984;2024-01-16T04:14:00;0.30;99.90
57434;DHT22;43277;52.672;6.984;2024-01-16T04:16:26;0.20;99.90
57434;DHT22;43277;52.672;6.984;2024-01-16T04:18:52;0.30;99.90
57434;DHT22;43277;52.672;6.984;2024-01-16T04:21:18;0.20;99.90
57434;DHT22;43277;52.672;6.984;2024-01-16T04:23:44;0.20;99.90
57434;DHT22;43277;52.672;6.984;2024-01-16T04:26:09;0.20;99.90
57434;DHT22;43277;52.672;6.984;2024-01-16T04:28:35;0.20;99.90
57434;DHT22;43277;52.672;6.984;2024-01-16T04:31:03;0.10;99.90
57434;DHT22;43277;52.672;6.984;2024-01-16T04:33:29;0.10;99.90
57434;DHT22;43277;52.672;6.984;2024-01-16T04:35:55;0.20;99.90
57434;DHT22;43277;52.672;6.984;2024-01-16T04:38:20;0.30;99.90
57434;DHT22;43277;52.672;6.984;2024-01-16T04:40:46;0.30;99.90
57434;DHT22;43277;52.672;6.984;2024-01-16T04:43:12;0.40;99.90
57434;DHT22;43277;52.672;6.984;2024-01-16T04:45:37;0.40;99.90
57434;DHT22;43277;52.672;6.984;2024-01-16T04:48:03;0.30;99.90
57434;DHT22;43277;52.672;6.984;2024-01-16T04:50:29;0.40;99.90
57434;DHT22;43277;52.672;6.984;2024-01-16T04:53:00;0.30;99.90
57434;DHT22;43277;52.672;6.984;2024-01-16T04:55:26;0.40;99.90
57434;DHT22;43277;52.672;6.984;2024-01-16T04:57:53;0.40;99.90
57434;DHT22;43277;52.672;6.984;2024-01-16T05:00:19;0.30;99.90
57434;DHT22;43277;52.672;6.984;2024-01-16T05:02:45;0.20;99.90
57434;DHT22;43277;52.672;6.984;2024-01-16T05:05:12;0.20;99.90
57434;DHT22;43277;52.672;6.984;2024-01-16T05:07:38;0.20;99.90
57434;DHT22;43277;52.672;6.984;2024-01-16T05:10:04;0.30;99.90
57434;DHT22;43277;52.672;6.984;2024-01-16T05:12:31;0.30;99.90
57434;DHT22;43277;52.672;6.984;2024-01-16T05:14:57;0.30;99.90
57434;DHT22;43277;52.672;6.984;2024-01-16T05:17:23;0.20;99.90
57434;DHT22;43277;52.672;6.984;2024-01-16T05:19:49;0.30;99.90
57434;DHT22;43277;52.672;6.984;2024-01-16T05:22:14;0.20;99.90
57434;DHT22;43277;52.672;6.984;2024-01-16T05:24:40;0.20;99.90
57434;DHT22;43277;52.672;6.984;2024-01-16T05:27:06;0.20;99.90
57434;DHT22;43277;52.672;6.984;2024-01-16T05:29:32;0.20;99.90
57434;DHT22;43277;52.672;6.984;2024-01-16T05:31:57;0.30;99.90
57434;DHT22;43277;52.672;6.984;2024-01-16T05:34:23;0.20;99.90
57434;DHT22;43277;52.672;6.984;2024-01-16T05:36:49;0.20;99.90
57434;DHT22;43277;52.672;6.984;2024-01-16T05:39:14;0.10;99.90
57434;DHT22;43277;52.672;6.984;2024-01-16T05:41:40;0.20;99.90
57434;DHT22;43277;52.672;6.984;2024-01-16T05:44:06;0.20;99.90
57434;DHT22;43277;52.672;6.984;2024-01-16T05:46:32;0.10;99.90
57434;DHT22;43277;52.672;6.984;2024-01-16T05:48:58;0.00;99.90
57434;DHT22;43277;52.672;6.984;2024-01-16T05:51:24;0.10;99.90
57434;DHT22;43277;52.672;6.984;2024-01-16T05:53:50;0.20;99.90
57434;DHT22;43277;52.672;6.984;2024-01-16T05:56:16;0.20;99.90
57434;DHT22;43277;52.672;6.984;2024-01-16T05:58:42;0.20;99.90
57434;DHT22;43277;52.672;6.984;2024-01-16T06:01:07;0.20;99.90
57434;DHT22;43277;52.672;6.984;2024-01-16T06:03:33;0.20;99.90
57434;DHT22;43277;52.672;6.984;2024-01-16T06:05:58;0.20;99.90
57434;DHT22;43277;52.672;6.984;2024-01-16T06:08:24;0.20;99.90
57434;DHT22;43277;52.672;6.984;2024-01-16T06:10:50;0.30;99.90
57434;DHT22;43277;52.672;6.984;2024-01-16T06:13:17;0.40;99.90
57434;DHT22;43277;52.672;6.984;2024-01-16T06:15:43;0.20;99.90
57434;DHT22;43277;52.672;6.984;2024-01-16T06:18:08;0.20;99.90
57434;DHT22;43277;52.672;6.984;2024-01-16T06:20:34;0.20;99.90
57434;DHT22;43277;52.672;6.984;2024-01-16T06:23:00;0.20;99.90
57434;DHT22;43277;52.672;6.984;2024-01-16T06:25:25;0.10;99.90
57434;DHT22;43277;52.672;6.984;2024-01-16T06:27:51;0.10;99.90
57434;DHT22;43277;52.672;6.984;2024-01-16T06:30:16;0.10;99.90
57434;DHT22;43277;52.672;6.984;2024-01-16T06:32:42;0.20;99.90
57434;DHT22;43277;52.672;6.984;2024-01-16T06:35:08;0.20;99.90
57434;DHT22;43277;52.672;6.984;2024-01-16T06:37:33;0.20;99.90
57434;DHT22;43277;52.672;6.984;2024-01-16T06:39:59;0.30;99.90
57434;DHT22;43277;52.672;6.984;2024-01-16T06:42:25;0.20;99.90
57434;DHT22;43277;52.672;6.984;2024-01-16T06:44:51;0.10;99.90
57434;DHT22;43277;52.672;6.984;2024-01-16T06:47:16;0.20;99.90
57434;DHT22;43277;52.672;6.984;2024-01-16T06:49:42;0.20;99.90
57434;DHT22;43277;52.672;6.984;2024-01-16T06:52:08;0.20;99.90
57434;DHT22;43277;52.672;6.984;2024-01-16T06:54:34;0.20;99.90
57434;DHT22;43277;52.672;6.984;2024-01-16T06:57:00;0.10;99.90
57434;DHT22;43277;52.672;6.984;2024-01-16T06:59:26;0.20;99.90
57434;DHT22;43277;52.672;6.984;2024-01-16T07:01:51;0.30;99.90
57434;DHT22;43277;52.672;6.984;2024-01-16T07:04:17;0.20;99.90
57434;DHT22;43277;52.672;6.984;2024-01-16T07:06:43;0.30;99.90
57434;DHT22;43277;52.672;6.984;2024-01-16T07:09:09;0.30;99.90
57434;DHT22;43277;52.672;6.984;2024-01-16T07:11:38;0.30;99.90
57434;DHT22;43277;52.672;6.984;2024-01-16T07:14:07;0.30;99.90
57434;DHT22;43277;52.672;6.984;2024-01-16T07:16:33;0.30;99.90
57434;DHT22;43277;52.672;6.984;2024-01-16T07:18:58;0.20;99.90
57434;DHT22;43277;52.672;6.984;2024-01-16T07:21:24;0.20;99.90
57434;DHT22;43277;52.672;6.984;2024-01-16T07:23:49;0.20;99.90
57434;DHT22;43277;52.672;6.984;2024-01-16T07:26:16;0.20;99.90
57434;DHT22;43277;52.672;6.984;2024-01-16T07:28:42;0.30;99.90
57434;DHT22;43277;52.672;6.984;2024-01-16T07:31:07;0.30;99.90
57434;DHT22;43277;52.672;6.984;2024-01-16T07:33:35;0.20;99.90
57434;DHT22;43277;52.672;6.984;2024-01-16T07:36:01;0.30;99.90
57434;DHT22;43277;52.672;6.984;2024-01-16T07:38:26;0.20;99.90
57434;DHT22;43277;52.672;6.984;2024-01-16T07:40:52;0.30;99.90
57434;DHT22;43277;52.672;6.984;2024-01-16T07:43:18;0.30;99.90
57434;DHT22;43277;52.672;6.984;2024-01-16T07:45:43;0.30;99.90
57434;DHT22;43277;52.672;6.984;2024-01-16T07:48:09;0.30;99.90
57434;DHT22;43277;52.672;6.984;2024-01-16T07:50:34;0.30;99.90
57434;DHT22;43277;52.672;6.984;2024-01-16T07:53:00;0.40;99.90
57434;DHT22;43277;52.672;6.984;2024-01-16T07:55:25;0.40;99.90
57434;DHT22;43277;52.672;6.984;2024-01-16T07:57:53;0.30;99.90
57434;DHT22;43277;52.672;6.984;2024-01-16T08:00:19;0.30;99.90
57434;DHT22;43277;52.672;6.984;2024-01-16T08:02:44;0.40;99.90
57434;DHT22;43277;52.672;6.984;2024-01-16T08:05:10;0.50;99.90
57434;DHT22;43277;52.672;6.984;2024-01-16T08:07:35;0.40;99.90
57434;DHT22;43277;52.672;6.984;2024-01-16T08:10:01;0.40;99.90
57434;DHT22;43277;52.672;6.984;2024-01-16T08:12:27;0.50;99.90
57434;DHT22;43277;52.672;6.984;2024-01-16T08:14:52;0.50;99.90
57434;DHT22;43277;52.672;6.984;2024-01-16T08:17:18;0.50;99.90
57434;DHT22;43277;52.672;6.984;2024-01-16T08:19:44;0.50;99.90
57434;DHT22;43277;52.672;6.984;2024-01-16T08:22:09;0.60;99.90
57434;DHT22;43277;52.672;6.984;2024-01-16T08:24:35;0.60;99.90
57434;DHT22;43277;52.672;6.984;2024-01-16T08:27:01;0.50;99.90
57434;DHT22;43277;52.672;6.984;2024-01-16T08:29:26;0.50;99.90
57434;DHT22;43277;52.672;6.984;2024-01-16T08:31:52;0.60;99.90
57434;DHT22;43277;52.672;6.984;2024-01-16T08:34:18;0.70;99.90
57434;DHT22;43277;52.672;6.984;2024-01-16T08:36:44;0.70;99.90
57434;DHT22;43277;52.672;6.984;2024-01-16T08:39:09;0.70;99.90
57434;DHT22;43277;52.672;6.984;2024-01-16T08:41:36;0.80;99.90
57434;DHT22;43277;52.672;6.984;2024-01-16T08:44:01;0.70;99.90
57434;DHT22;43277;52.672;6.984;2024-01-16T08:46:27;0.80;99.90
57434;DHT22;43277;52.672;6.984;2024-01-16T08:48:52;0.70;99.90
57434;DHT22;43277;52.672;6.984;2024-01-16T08:51:18;0.80;99.90
57434;DHT22;43277;52.672;6.984;2024-01-16T08:53:44;0.80;99.90
57434;DHT22;43277;52.672;6.984;2024-01-16T08:56:09;0.80;99.90
57434;DHT22;43277;52.672;6.984;2024-01-16T08:58:38;0.90;99.90
57434;DHT22;43277;52.672;6.984;2024-01-16T09:01:06;0.90;99.90
57434;DHT22;43277;52.672;6.984;2024-01-16T09:03:33;0.90;99.90
57434;DHT22;43277;52.672;6.984;2024-01-16T09:05:59;1.00;99.90
57434;DHT22;43277;52.672;6.984;2024-01-16T09:08:26;1.10;99.90
57434;DHT22;43277;52.672;6.984;2024-01-16T09:10:52;1.10;99.90
57434;DHT22;43277;52.672;6.984;2024-01-16T09:13:18;1.20;99.90
57434;DHT22;43277;52.672;6.984;2024-01-16T09:15:46;1.30;99.90
57434;DHT22;43277;52.672;6.984;2024-01-16T09:18:12;1.30;99.90
57434;DHT22;43277;52.672;6.984;2024-01-16T09:20:38;1.30;99.90
57434;DHT22;43277;52.672;6.984;2024-01-16T09:23:04;1.30;99.90
57434;DHT22;43277;52.672;6.984;2024-01-16T09:25:30;1.30;99.90
57434;DHT22;43277;52.672;6.984;2024-01-16T09:27:55;1.40;99.90
57434;DHT22;43277;52.672;6.984;2024-01-16T09:30:21;1.40;99.90
57434;DHT22;43277;52.672;6.984;2024-01-16T09:32:48;1.40;99.90
57434;DHT22;43277;52.672;6.984;2024-01-16T09:35:14;1.40;99.90
57434;DHT22;43277;52.672;6.984;2024-01-16T09:37:40;1.40;99.90
57434;DHT22;43277;52.672;6.984;2024-01-16T09:40:06;1.30;99.90
57434;DHT22;43277;52.672;6.984;2024-01-16T09:42:32;1.30;99.90
57434;DHT22;43277;52.672;6.984;2024-01-16T09:45:00;1.40;99.90
57434;DHT22;43277;52.672;6.984;2024-01-16T09:47:30;1.50;99.90
57434;DHT22;43277;52.672;6.984;2024-01-16T09:49:57;1.40;99.90
57434;DHT22;43277;52.672;6.984;2024-01-16T09:52:25;1.40;99.90
57434;DHT22;43277;52.672;6.984;2024-01-16T09:54:50;1.40;99.90
57434;DHT22;43277;52.672;6.984;2024-01-16T09:57:19;1.60;99.90
57434;DHT22;43277;52.672;6.984;2024-01-16T09:59:48;1.70;99.90
57434;DHT22;43277;52.672;6.984;2024-01-16T10:02:14;1.60;99.90
57434;DHT22;43277;52.672;6.984;2024-01-16T10:04:43;1.50;99.90
57434;DHT22;43277;52.672;6.984;2024-01-16T10:07:10;1.50;99.90
57434;DHT22;43277;52.672;6.984;2024-01-16T10:09:38;1.50;99.90
57434;DHT22;43277;52.672;6.984;2024-01-16T10:12:05;1.50;99.90
57434;DHT22;43277;52.672;6.984;2024-01-16T10:14:32;1.50;99.90
57434;DHT22;43277;52.672;6.984;2024-01-16T10:16:59;1.50;99.90
57434;DHT22;43277;52.672;6.984;2024-01-16T10:19:29;1.60;99.90
57434;DHT22;43277;52.672;6.984;2024-01-16T10:22:04;1.60;99.90
57434;DHT22;43277;52.672;6.984;2024-01-16T10:24:32;1.60;99.90
57434;DHT22;43277;52.672;6.984;2024-01-16T10:26:59;1.60;99.90
57434;DHT22;43277;52.672;6.984;2024-01-16T10:29:26;1.60;99.90
57434;DHT22;43277;52.672;6.984;2024-01-16T10:31:52;1.60;99.90
57434;DHT22;43277;52.672;6.984;2024-01-16T10:34:21;1.70;99.90
57434;DHT22;43277;52.672;6.984;2024-01-16T10:36:50;1.60;99.90
57434;DHT22;43277;52.672;6.984;2024-01-16T10:39:17;1.60;99.90
57434;DHT22;43277;52.672;6.984;2024-01-16T10:41:54;1.60;99.90
57434;DHT22;43277;52.672;6.984;2024-01-16T10:44:20;1.70;99.90
57434;DHT22;43277;52.672;6.984;2024-01-16T10:46:45;1.70;99.90
57434;DHT22;43277;52.672;6.984;2024-01-16T10:49:11;1.80;99.90
57434;DHT22;43277;52.672;6.984;2024-01-16T10:51:38;1.80;99.90
57434;DHT22;43277;52.672;6.984;2024-01-16T10:54:05;1.80;99.90
57434;DHT22;43277;52.672;6.984;2024-01-16T10:56:32;1.80;99.90
57434;DHT22;43277;52.672;6.984;2024-01-16T11:01:45;1.80;99.90
57434;DHT22;43277;52.672;6.984;2024-01-16T11:04:12;1.80;99.90
57434;DHT22;43277;52.672;6.984;2024-01-16T11:06:39;1.90;99.90
57434;DHT22;43277;52.672;6.984;2024-01-16T11:09:07;2.00;99.90
57434;DHT22;43277;52.672;6.984;2024-01-16T11:11:34;2.00;99.90
57434;DHT22;43277;52.672;6.984;2024-01-16T11:14:03;2.00;99.90
57434;DHT22;43277;52.672;6.984;2024-01-16T11:16:32;2.10;99.90
57434;DHT22;43277;52.672;6.984;2024-01-16T11:18:58;2.10;99.90
57434;DHT22;43277;52.672;6.984;2024-01-16T11:21:25;2.10;99.90
57434;DHT22;43277;52.672;6.984;2024-01-16T11:23:51;2.10;99.90
57434;DHT22;43277;52.672;6.984;2024-01-16T11:26:33;2.20;99.90
57434;DHT22;43277;52.672;6.984;2024-01-16T11:31:52;2.30;99.90
57434;DHT22;43277;52.672;6.984;2024-01-16T11:37:11;2.50;99.90
57434;DHT22;43277;52.672;6.984;2024-01-16T11:39:38;2.50;99.90
57434;DHT22;43277;52.672;6.984;2024-01-16T11:42:04;2.40;99.90
57434;DHT22;43277;52.672;6.984;2024-01-16T11:44:48;2.30;99.90
57434;DHT22;43277;52.672;6.984;2024-01-16T11:47:22;2.40;99.90
57434;DHT22;43277;52.672;6.984;2024-01-16T11:50:07;2.30;99.90
57434;DHT22;43277;52.672;6.984;2024-01-16T11:52:41;2.30;99.90
57434;DHT22;43277;52.672;6.984;2024-01-16T12:00:32;2.30;99.90
57434;DHT22;43277;52.672;6.984;2024-01-16T12:03:04;2.20;99.90
57434;DHT22;43277;52.672;6.984;2024-01-16T12:05:30;2.20;99.90
57434;DHT22;43277;52.672;6.984;2024-01-16T12:07:57;2.20;99.90
57434;DHT22;43277;52.672;6.984;2024-01-16T12:10:24;2.20;99.90
57434;DHT22;43277;52.672;6.984;2024-01-16T12:12:51;2.20;99.90
57434;DHT22;43277;52.672;6.984;2024-01-16T12:15:17;2.00;99.90
57434;DHT22;43277;52.672;6.984;2024-01-16T12:18:00;2.10;99.90
57434;DHT22;43277;52.672;6.984;2024-01-16T12:20:28;2.00;99.90
57434;DHT22;43277;52.672;6.984;2024-01-16T12:22:55;1.90;99.90
57434;DHT22;43277;52.672;6.984;2024-01-16T12:25:21;1.90;99.90
57434;DHT22;43277;52.672;6.984;2024-01-16T12:27:57;2.00;99.90
57434;DHT22;43277;52.672;6.984;2024-01-16T12:30:24;2.00;99.90
57434;DHT22;43277;52.672;6.984;2024-01-16T12:32:51;2.10;99.90
57434;DHT22;43277;52.672;6.984;2024-01-16T12:35:21;2.10;99.90
57434;DHT22;43277;52.672;6.984;2024-01-16T12:38:04;2.00;99.90
57434;DHT22;43277;52.672;6.984;2024-01-16T12:40:32;2.10;99.90
57434;DHT22;43277;52.672;6.984;2024-01-16T12:42:58;2.00;99.90
57434;DHT22;43277;52.672;6.984;2024-01-16T12:45:24;2.10;99.90
57434;DHT22;43277;52.672;6.984;2024-01-16T12:47:53;2.00;99.90
57434;DHT22;43277;52.672;6.984;2024-01-16T12:50:20;2.00;99.90
57434;DHT22;43277;52.672;6.984;2024-01-16T12:52:46;2.20;99.90
57434;DHT22;43277;52.672;6.984;2024-01-16T12:55:13;2.10;99.90
57434;DHT22;43277;52.672;6.984;2024-01-16T12:57:39;2.10;99.90
57434;DHT22;43277;52.672;6.984;2024-01-16T13:00:21;2.20;99.90
57434;DHT22;43277;52.672;6.984;2024-01-16T13:02:51;2.20;99.90
57434;DHT22;43277;52.672;6.984;2024-01-16T13:05:18;2.50;99.90
57434;DHT22;43277;52.672;6.984;2024-01-16T13:07:44;2.30;99.90
57434;DHT22;43277;52.672;6.984;2024-01-16T13:10:12;2.30;99.90
57434;DHT22;43277;52.672;6.984;2024-01-16T13:12:41;2.30;99.90
57434;DHT22;43277;52.672;6.984;2024-01-16T13:15:07;2.40;99.90
57434;DHT22;43277;52.672;6.984;2024-01-16T13:17:34;2.40;99.90
57434;DHT22;43277;52.672;6.984;2024-01-16T13:20:00;2.40;99.90
57434;DHT22;43277;52.672;6.984;2024-01-16T13:22:26;2.40;99.90
57434;DHT22;43277;52.672;6.984;2024-01-16T13:24:52;2.40;99.90
57434;DHT22;43277;52.672;6.984;2024-01-16T13:27:17;2.40;99.90
57434;DHT22;43277;52.672;6.984;2024-01-16T13:29:43;2.40;99.90
57434;DHT22;43277;52.672;6.984;2024-01-16T13:32:10;2.30;99.90
57434;DHT22;43277;52.672;6.984;2024-01-16T13:34:36;2.20;99.90
57434;DHT22;43277;52.672;6.984;2024-01-16T13:37:01;2.40;99.90
57434;DHT22;43277;52.672;6.984;2024-01-16T13:39:29;2.30;99.90
57434;DHT22;43277;52.672;6.984;2024-01-16T13:42:00;2.20;99.90
57434;DHT22;43277;52.672;6.984;2024-01-16T13:44:25;2.10;99.90
57434;DHT22;43277;52.672;6.984;2024-01-16T13:46:52;2.20;99.90
57434;DHT22;43277;52.672;6.984;2024-01-16T13:49:17;2.20;99.90
57434;DHT22;43277;52.672;6.984;2024-01-16T13:51:46;2.20;99.90
57434;DHT22;43277;52.672;6.984;2024-01-16T13:54:12;2.20;99.90
57434;DHT22;43277;52.672;6.984;2024-01-16T13:56:37;2.10;99.90
57434;DHT22;43277;52.672;6.984;2024-01-16T13:59:04;2.10;99.90
57434;DHT22;43277;52.672;6.984;2024-01-16T14:01:30;2.10;99.90
57434;DHT22;43277;52.672;6.984;2024-01-16T14:03:55;2.40;99.90
57434;DHT22;43277;52.672;6.984;2024-01-16T14:06:21;2.20;99.90
57434;DHT22;43277;52.672;6.984;2024-01-16T14:08:47;2.30;99.90
57434;DHT22;43277;52.672;6.984;2024-01-16T14:11:12;2.50;99.90
57434;DHT22;43277;52.672;6.984;2024-01-16T14:13:38;2.50;99.90
57434;DHT22;43277;52.672;6.984;2024-01-16T14:16:04;2.50;99.90
57434;DHT22;43277;52.672;6.984;2024-01-16T14:18:30;2.60;99.90
57434;DHT22;43277;52.672;6.984;2024-01-16T14:20:55;2.50;99.90
57434;DHT22;43277;52.672;6.984;2024-01-16T14:23:21;2.50;99.90
57434;DHT22;43277;52.672;6.984;2024-01-16T14:25:47;2.50;99.90
57434;DHT22;43277;52.672;6.984;2024-01-16T14:28:13;2.50;99.90
57434;DHT22;43277;52.672;6.984;2024-01-16T14:30:39;2.50;99.90
57434;DHT22;43277;52.672;6.984;2024-01-16T14:33:05;2.50;99.90
57434;DHT22;43277;52.672;6.984;2024-01-16T14:35:34;2.40;99.90
57434;DHT22;43277;52.672;6.984;2024-01-16T14:37:59;2.40;99.90
57434;DHT22;43277;52.672;6.984;2024-01-16T14:40:25;2.40;99.90
57434;DHT22;43277;52.672;6.984;2024-01-16T14:42:52;2.40;99.90
57434;DHT22;43277;52.672;6.984;2024-01-16T14:45:25;2.30;99.90
57434;DHT22;43277;52.672;6.984;2024-01-16T14:47:52;2.30;99.90
57434;DHT22;43277;52.672;6.984;2024-01-16T14:50:19;2.20;99.90
57434;DHT22;43277;52.672;6.984;2024-01-16T14:52:48;2.20;99.90
57434;DHT22;43277;52.672;6.984;2024-01-16T14:55:14;2.10;99.90
57434;DHT22;43277;52.672;6.984;2024-01-16T14:57:40;2.10;99.90
57434;DHT22;43277;52.672;6.984;2024-01-16T15:00:11;2.10;99.90
57434;DHT22;43277;52.672;6.984;2024-01-16T15:02:49;2.10;99.90
57434;DHT22;43277;52.672;6.984;2024-01-16T15:05:15;2.10;99.90
57434;DHT22;43277;52.672;6.984;2024-01-16T15:07:41;2.40;99.90
57434;DHT22;43277;52.672;6.984;2024-01-16T15:10:08;2.10;99.90
57434;DHT22;43277;52.672;6.984;2024-01-16T15:12:35;2.10;99.90
57434;DHT22;43277;52.672;6.984;2024-01-16T15:15:01;2.10;99.90
57434;DHT22;43277;52.672;6.984;2024-01-16T15:17:29;2.10;99.90
57434;DHT22;43277;52.672;6.984;2024-01-16T15:19:55;2.10;99.90
57434;DHT22;43277;52.672;6.984;2024-01-16T15:22:20;2.00;99.90
57434;DHT22;43277;52.672;6.984;2024-01-16T15:24:46;1.90;99.90
57434;DHT22;43277;52.672;6.984;2024-01-16T15:27:13;2.00;99.90
57434;DHT22;43277;52.672;6.984;2024-01-16T15:29:38;2.10;99.90
57434;DHT22;43277;52.672;6.984;2024-01-16T15:32:04;1.90;99.90
57434;DHT22;43277;52.672;6.984;2024-01-16T15:34:30;1.90;99.90
57434;DHT22;43277;52.672;6.984;2024-01-16T15:36:56;1.90;99.90
57434;DHT22;43277;52.672;6.984;2024-01-16T15:39:23;1.70;99.90
57434;DHT22;43277;52.672;6.984;2024-01-16T15:41:48;1.70;99.90
57434;DHT22;43277;52.672;6.984;2024-01-16T15:44:14;1.70;99.90
57434;DHT22;43277;52.672;6.984;2024-01-16T15:49:21;1.60;99.90
57434;DHT22;43277;52.672;6.984;2024-01-16T15:51:47;1.60;99.90
57434;DHT22;43277;52.672;6.984;2024-01-16T15:54:13;1.50;99.90
57434;DHT22;43277;52.672;6.984;2024-01-16T15:56:38;1.50;99.90